createdAt,value
2019-02-24T00:03:12.596Z,8.98
2019-02-24T00:05:12.568Z,8.97
2019-02-24T00:09:12.675Z,8.92
2019-02-24T00:11:17.648Z,8.92
2019-02-24T00:15:12.670Z,8.89
2019-02-24T00:17:12.657Z,8.91
2019-02-24T00:21:12.649Z,8.85
2019-02-24T00:23:13.488Z,8.86
2019-02-24T00:27:12.657Z,8.85
2019-02-24T00:29:12.659Z,8.83
2019-02-24T00:33:12.684Z,8.82
2019-02-24T00:35:12.669Z,8.80
2019-02-24T00:39:12.703Z,8.81
2019-02-24T00:41:12.725Z,8.81
2019-02-24T00:45:12.711Z,8.76
2019-02-24T00:47:12.744Z,8.74
2019-02-24T00:51:13.473Z,8.76
2019-02-24T00:53:12.710Z,8.73
2019-02-24T00:57:12.751Z,8.73
2019-02-24T00:59:12.759Z,8.71
2019-02-24T01:03:12.776Z,8.72
2019-02-24T01:05:12.769Z,8.68
2019-02-24T01:09:12.781Z,8.66
2019-02-24T01:11:12.757Z,8.69
2019-02-24T01:15:12.806Z,8.65
2019-02-24T01:17:12.810Z,8.63
2019-02-24T01:21:12.811Z,8.59
2019-02-24T01:23:12.856Z,8.60
2019-02-24T01:27:12.851Z,8.59
2019-02-24T01:29:12.830Z,8.57
2019-02-24T01:33:12.888Z,8.56
2019-02-24T01:35:12.904Z,8.53
2019-02-24T01:39:12.899Z,8.52
2019-02-24T01:41:12.894Z,8.50
2019-02-24T01:45:12.934Z,8.47
2019-02-24T01:47:12.973Z,8.49
2019-02-24T01:51:12.912Z,8.49
2019-02-24T01:53:12.955Z,8.46
2019-02-24T01:57:13.795Z,8.45
2019-02-24T01:59:18.124Z,8.42
2019-02-24T02:03:12.959Z,8.41
2019-02-24T02:05:12.949Z,8.38
2019-02-24T02:13:18.160Z,8.37
2019-02-24T02:15:12.972Z,8.38
2019-02-24T02:19:12.988Z,8.34
2019-02-24T02:21:13.008Z,8.32
2019-02-24T02:25:13.002Z,8.32
2019-02-24T02:27:13.006Z,8.31
2019-02-24T02:31:13.021Z,8.31
2019-02-24T02:33:13.015Z,8.27
2019-02-24T02:37:13.041Z,8.25
2019-02-24T02:39:13.053Z,8.27
2019-02-24T02:43:13.059Z,8.23
2019-02-24T02:45:13.069Z,8.25
2019-02-24T02:49:13.062Z,8.20
2019-02-24T02:51:13.087Z,8.19
2019-02-24T02:55:13.055Z,8.15
2019-02-24T02:57:13.113Z,8.17
2019-02-24T03:01:13.139Z,8.14
2019-02-24T03:03:13.104Z,8.16
2019-02-24T03:07:13.912Z,8.10
2019-02-24T03:09:13.081Z,8.12
2019-02-24T03:13:13.102Z,8.09
2019-02-24T03:17:13.137Z,8.07
2019-02-24T03:19:13.142Z,8.06
2019-02-24T03:23:13.134Z,8.08
2019-02-24T03:25:13.156Z,8.07
2019-02-24T03:29:13.167Z,8.05
2019-02-24T03:31:13.166Z,8.02
2019-02-24T03:35:13.164Z,8.01
2019-02-24T03:37:13.207Z,7.98
2019-02-24T03:43:13.200Z,7.98
2019-02-24T03:47:13.194Z,7.95
2019-02-24T03:49:13.197Z,7.93
2019-02-24T03:53:13.196Z,7.93
2019-02-24T03:55:13.184Z,7.93
2019-02-24T03:59:15.365Z,7.88
2019-02-24T04:01:13.208Z,7.88
2019-02-24T04:05:13.203Z,7.87
2019-02-24T04:07:13.211Z,7.85
2019-02-24T04:11:13.228Z,7.82
2019-02-24T04:15:13.201Z,7.81
2019-02-24T04:17:13.222Z,7.82
2019-02-24T04:21:13.227Z,7.78
2019-02-24T04:23:13.233Z,7.76
2019-02-24T04:27:13.242Z,7.75
2019-02-24T04:29:13.273Z,7.75
2019-02-24T04:33:13.272Z,7.73
2019-02-24T04:35:17.608Z,7.70
2019-02-24T04:39:13.276Z,7.68
2019-02-24T04:41:13.256Z,7.69
2019-02-24T04:45:13.284Z,7.67
2019-02-24T04:47:13.309Z,7.64
2019-02-24T04:51:13.388Z,7.63
2019-02-24T04:53:13.327Z,7.66
2019-02-24T04:57:17.193Z,7.60
2019-02-24T04:59:13.324Z,7.59
2019-02-24T05:03:18.536Z,7.58
2019-02-24T05:05:13.367Z,7.57
2019-02-24T05:09:13.344Z,7.56
2019-02-24T05:11:13.325Z,7.54
2019-02-24T05:15:13.353Z,7.53
2019-02-24T05:17:13.332Z,7.54
2019-02-24T05:21:13.380Z,7.49
2019-02-24T05:23:13.401Z,7.49
2019-02-24T05:27:16.376Z,7.46
2019-02-24T05:29:20.406Z,7.46
2019-02-24T05:33:13.501Z,7.42
2019-02-24T05:35:13.614Z,7.41
2019-02-24T05:39:15.472Z,7.40
2019-02-24T05:41:17.926Z,7.39
2019-02-24T05:45:16.385Z,7.39
2019-02-24T05:47:13.596Z,7.38
2019-02-24T05:51:14.901Z,7.35
2019-02-24T05:53:13.431Z,7.34
2019-02-24T05:59:13.584Z,7.32
2019-02-24T06:01:13.423Z,7.32
2019-02-24T06:05:13.588Z,7.30
2019-02-24T06:07:14.605Z,7.29
2019-02-24T06:11:13.435Z,7.27
2019-02-24T06:13:13.422Z,7.26
2019-02-24T06:17:13.583Z,7.23
2019-02-24T06:19:13.677Z,7.23
2019-02-24T06:23:13.598Z,7.20
2019-02-24T06:25:13.595Z,7.18
2019-02-24T06:29:13.484Z,7.18
2019-02-24T06:31:16.179Z,7.18
2019-02-24T06:35:18.657Z,7.16
2019-02-24T06:37:13.502Z,7.16
2019-02-24T06:41:13.597Z,7.13
2019-02-24T06:43:18.163Z,7.14
2019-02-24T06:47:13.630Z,7.11
2019-02-24T06:49:13.507Z,7.10
2019-02-24T06:53:14.481Z,7.07
2019-02-24T06:55:13.618Z,7.06
2019-02-24T06:59:13.509Z,7.07
2019-02-24T07:01:15.867Z,7.03
2019-02-24T07:07:13.765Z,7.03
2019-02-24T07:09:19.199Z,7.00
2019-02-24T07:13:13.627Z,7.02
2019-02-24T07:15:13.700Z,7.00
2019-02-24T07:19:13.549Z,6.96
2019-02-24T07:21:13.545Z,6.96
2019-02-24T07:25:13.792Z,6.96
2019-02-24T07:27:13.695Z,6.97
2019-02-24T07:31:13.801Z,6.92
2019-02-24T07:33:13.588Z,6.92
2019-02-24T07:37:16.546Z,6.90
2019-02-24T07:39:13.604Z,6.90
2019-02-24T07:43:13.816Z,6.89
2019-02-24T07:45:14.628Z,6.89
2019-02-24T07:49:13.603Z,6.88
2019-02-24T07:51:13.734Z,6.88
2019-02-24T07:55:13.891Z,6.87
2019-02-24T07:57:15.389Z,6.86
2019-02-24T08:01:13.624Z,6.86
2019-02-24T08:03:13.646Z,6.85
2019-02-24T08:07:13.763Z,6.86
2019-02-24T08:09:18.887Z,6.86
2019-02-24T08:13:13.665Z,6.86
2019-02-24T08:15:13.721Z,6.87
2019-02-24T08:19:13.805Z,6.87
2019-02-24T08:21:15.030Z,6.87
2019-02-24T08:25:13.833Z,6.90
2019-02-24T08:27:13.787Z,6.92
2019-02-24T08:31:13.829Z,6.92
2019-02-24T08:33:14.993Z,6.94
2019-02-24T08:39:15.996Z,6.99
2019-02-24T08:41:18.864Z,6.99
2019-02-24T08:45:13.926Z,7.03
2019-02-24T08:47:18.907Z,7.08
2019-02-24T08:51:13.699Z,7.09
2019-02-24T08:53:18.906Z,7.10
2019-02-24T08:57:13.851Z,7.15
2019-02-24T08:59:13.908Z,7.15
2019-02-24T09:03:18.886Z,7.20
2019-02-24T09:05:13.833Z,7.21
2019-02-24T09:09:13.856Z,7.26
2019-02-24T09:11:13.887Z,7.29
2019-02-24T09:15:14.956Z,7.31
2019-02-24T09:17:13.872Z,7.33
2019-02-24T09:21:18.727Z,7.37
2019-02-24T09:23:18.738Z,7.39
2019-02-24T09:27:13.878Z,7.47
2019-02-24T09:29:13.958Z,7.48
2019-02-24T09:33:13.913Z,7.52
2019-02-24T09:35:18.772Z,7.56
2019-02-24T09:39:13.949Z,7.62
2019-02-24T09:41:15.123Z,7.64
2019-02-24T09:45:13.738Z,7.71
2019-02-24T09:47:13.892Z,7.73
2019-02-24T09:51:15.076Z,7.80
2019-02-24T09:53:13.835Z,7.84
2019-02-24T09:57:18.214Z,7.90
2019-02-24T09:59:13.950Z,7.93
2019-02-24T10:03:18.939Z,8.01
2019-02-24T10:05:18.127Z,8.03
2019-02-24T10:09:13.901Z,8.09
2019-02-24T10:11:15.017Z,8.13
2019-02-24T10:15:13.748Z,8.19
2019-02-24T10:17:18.958Z,8.23
2019-02-24T10:21:13.818Z,8.31
2019-02-24T10:23:18.973Z,8.34
2019-02-24T10:27:13.781Z,8.42
2019-02-24T10:29:14.002Z,8.46
2019-02-24T10:33:13.999Z,8.52
2019-02-24T10:35:15.167Z,8.56
2019-02-24T10:39:13.861Z,8.65
2019-02-24T10:41:15.522Z,8.70
2019-02-24T10:45:13.948Z,8.78
2019-02-24T10:47:13.968Z,8.80
2019-02-24T10:51:13.964Z,8.89
2019-02-24T10:53:15.794Z,8.93
2019-02-24T10:57:13.978Z,9.01
2019-02-24T10:59:14.065Z,9.06
2019-02-24T11:03:14.624Z,9.15
2019-02-24T11:05:19.019Z,9.20
2019-02-24T11:09:13.859Z,9.30
2019-02-24T11:11:14.009Z,9.34
2019-02-24T11:15:19.011Z,9.45
2019-02-24T11:17:19.000Z,9.49
2019-02-24T11:21:13.950Z,9.59
2019-02-24T11:23:18.156Z,9.63
2019-02-24T11:27:16.021Z,9.72
2019-02-24T11:29:19.021Z,9.75
2019-02-24T11:35:14.077Z,9.91
2019-02-24T11:37:24.481Z,9.95
2019-02-24T11:41:13.838Z,10.03
2019-02-24T11:43:19.025Z,10.10
2019-02-24T11:47:19.042Z,10.19
2019-02-24T11:49:13.987Z,10.24
2019-02-24T11:55:18.940Z,10.38
2019-02-24T11:57:18.902Z,10.43
2019-02-24T12:01:13.878Z,10.53
2019-02-24T12:03:16.576Z,10.58
2019-02-24T12:09:18.917Z,10.72
2019-02-24T12:11:19.038Z,10.75
2019-02-24T12:15:13.881Z,10.84
2019-02-24T12:17:18.819Z,10.88
2019-02-24T12:21:13.922Z,10.98
2019-02-24T12:25:19.052Z,11.06
2019-02-24T12:27:18.903Z,11.07
2019-02-24T12:31:21.865Z,11.16
2019-02-24T12:33:14.893Z,11.20
2019-02-24T12:39:14.063Z,11.32
2019-02-24T12:41:18.373Z,11.37
2019-02-24T12:45:18.740Z,11.41
2019-02-24T12:47:17.989Z,11.47
2019-02-24T12:51:14.068Z,11.55
2019-02-24T12:53:13.923Z,11.58
2019-02-24T12:57:19.234Z,11.63
2019-02-24T12:59:15.740Z,11.66
2019-02-24T13:03:23.779Z,11.72
2019-02-24T13:07:19.607Z,11.77
2019-02-24T13:09:14.160Z,11.78
2019-02-24T13:13:14.177Z,11.90
2019-02-24T13:15:18.999Z,11.88
2019-02-24T13:19:19.009Z,11.92
2019-02-24T13:21:17.526Z,11.93
2019-02-24T13:25:15.296Z,11.93
2019-02-24T13:27:14.160Z,11.98
2019-02-24T13:31:14.093Z,12.02
2019-02-24T13:33:19.220Z,12.02
2019-02-24T13:37:14.119Z,12.05
2019-02-24T13:39:18.224Z,12.04
2019-02-24T13:43:18.983Z,12.06
2019-02-24T13:45:19.624Z,12.05
2019-02-24T13:49:16.938Z,12.08
2019-02-24T13:51:14.009Z,12.05
2019-02-24T13:55:19.141Z,12.09
2019-02-24T13:57:18.142Z,12.08
2019-02-24T14:01:19.183Z,12.06
2019-02-24T14:03:19.025Z,12.07
2019-02-24T14:07:14.181Z,12.10
2019-02-24T14:09:18.854Z,12.07
2019-02-24T14:13:14.244Z,12.10
2019-02-24T14:15:17.136Z,12.09
2019-02-24T14:21:19.222Z,12.08
2019-02-24T14:25:18.537Z,12.10
2019-02-24T14:29:21.999Z,12.07
2019-02-24T14:31:14.236Z,12.07
2019-02-24T14:35:14.214Z,12.08
2019-02-24T14:37:14.109Z,12.08
2019-02-24T14:41:19.249Z,12.08
2019-02-24T14:43:14.212Z,12.08
2019-02-24T14:47:14.086Z,12.08
2019-02-24T14:49:14.245Z,12.08
2019-02-24T14:53:19.118Z,12.08
2019-02-24T14:55:19.231Z,12.07
2019-02-24T14:59:15.551Z,12.08
2019-02-24T15:01:18.438Z,12.07
2019-02-24T15:05:16.356Z,12.06
2019-02-24T15:07:19.291Z,12.06
2019-02-24T15:11:14.138Z,12.04
2019-02-24T15:13:15.331Z,12.06
2019-02-24T15:17:14.171Z,12.05
2019-02-24T15:19:15.489Z,12.04
2019-02-24T15:23:14.148Z,12.02
2019-02-24T15:25:17.667Z,12.02
2019-02-24T15:29:19.332Z,12.02
2019-02-24T15:31:14.166Z,12.02
2019-02-24T15:35:18.749Z,12.01
2019-02-24T15:37:19.177Z,12.01
2019-02-24T15:41:29.795Z,12.01
2019-02-24T15:43:14.200Z,12.01
2019-02-24T15:47:14.218Z,12.01
2019-02-24T15:49:14.228Z,12.02
2019-02-24T15:53:14.248Z,11.99
2019-02-24T15:55:19.322Z,11.99
2019-02-24T15:59:14.290Z,11.98
2019-02-24T16:01:19.748Z,11.98
2019-02-24T16:05:20.879Z,11.98
2019-02-24T16:07:14.264Z,11.99
2019-02-24T16:11:19.278Z,11.96
2019-02-24T16:13:16.992Z,11.97
2019-02-24T16:19:14.293Z,11.95
2019-02-24T16:21:14.329Z,11.95
2019-02-24T16:25:16.506Z,11.94
2019-02-24T16:27:14.320Z,11.93
2019-02-24T16:33:14.289Z,11.92
2019-02-24T16:35:14.302Z,11.91
2019-02-24T16:39:14.314Z,11.91
2019-02-24T16:41:18.884Z,11.91
2019-02-24T16:45:14.304Z,11.88
2019-02-24T16:47:14.299Z,11.88
2019-02-24T16:51:14.347Z,11.87
2019-02-24T16:53:19.393Z,11.87
2019-02-24T16:57:15.262Z,11.86
2019-02-24T16:59:14.359Z,11.86
2019-02-24T17:03:19.844Z,11.84
2019-02-24T17:05:15.786Z,11.84
2019-02-24T17:09:15.929Z,11.82
2019-02-24T17:11:14.373Z,11.81
2019-02-24T17:15:19.828Z,11.80
2019-02-24T17:17:14.415Z,11.79
2019-02-24T17:21:19.519Z,11.78
2019-02-24T17:23:14.395Z,11.77
2019-02-24T17:27:14.395Z,11.75
2019-02-24T17:29:19.453Z,11.75
2019-02-24T17:33:19.003Z,11.74
2019-02-24T17:35:16.489Z,11.73
2019-02-24T17:39:19.398Z,11.72
2019-02-24T17:41:14.388Z,11.71
2019-02-24T17:45:14.397Z,11.70
2019-02-24T17:47:14.439Z,11.68
2019-02-24T17:51:20.882Z,11.67
2019-02-24T17:53:14.440Z,11.67
2019-02-24T17:57:19.422Z,11.66
2019-02-24T17:59:14.457Z,11.65
2019-02-24T18:03:14.475Z,11.63
2019-02-24T18:05:19.462Z,11.64
2019-02-24T18:09:14.462Z,11.61
2019-02-24T18:11:14.460Z,11.61
2019-02-24T18:15:14.476Z,11.58
2019-02-24T18:17:14.475Z,11.59
2019-02-24T18:21:14.476Z,11.56
2019-02-24T18:23:14.484Z,11.56
2019-02-24T18:27:14.508Z,11.54
2019-02-24T18:29:14.519Z,11.53
2019-02-24T18:33:14.516Z,11.51
2019-02-24T18:35:19.568Z,11.52
2019-02-24T18:39:14.522Z,11.49
2019-02-24T18:41:14.554Z,11.48
2019-02-24T18:45:14.530Z,11.46
2019-02-24T18:47:19.251Z,11.46
2019-02-24T18:51:14.561Z,11.44
2019-02-24T18:53:14.550Z,11.43
2019-02-24T18:57:19.073Z,11.41
2019-02-24T18:59:14.572Z,11.40
2019-02-24T19:03:19.052Z,11.40
2019-02-24T19:05:14.594Z,11.38
2019-02-24T19:09:14.588Z,11.35
2019-02-24T19:11:14.590Z,11.34
2019-02-24T19:15:14.634Z,11.34
2019-02-24T19:17:14.665Z,11.33
2019-02-24T19:21:14.660Z,11.32
2019-02-24T19:23:16.478Z,11.29
2019-02-24T19:27:19.285Z,11.27
2019-02-24T19:29:14.670Z,11.27
2019-02-24T19:33:14.669Z,11.25
2019-02-24T19:35:14.708Z,11.23
2019-02-24T19:39:14.693Z,11.22
2019-02-24T19:41:14.749Z,11.22
2019-02-24T19:45:19.305Z,11.19
2019-02-24T19:47:18.626Z,11.18
2019-02-24T19:51:19.778Z,11.15
2019-02-24T19:53:14.735Z,11.15
2019-02-24T19:57:14.756Z,11.13
2019-02-24T19:59:19.286Z,11.12
2019-02-24T20:03:14.778Z,11.08
2019-02-24T20:05:14.798Z,11.07
2019-02-24T20:09:14.808Z,11.06
2019-02-24T20:11:16.851Z,11.05
2019-02-24T20:15:14.813Z,10.94
2019-02-24T20:17:14.831Z,10.94
2019-02-24T20:21:14.814Z,10.93
2019-02-24T20:23:14.829Z,10.92
2019-02-24T20:27:19.348Z,10.92
2019-02-24T20:29:20.290Z,10.89
2019-02-24T20:33:14.840Z,10.87
2019-02-24T20:35:14.852Z,10.85
2019-02-24T20:39:14.885Z,10.84
2019-02-24T20:41:17.077Z,10.82
2019-02-24T20:45:15.407Z,10.78
2019-02-24T20:47:19.496Z,10.76
2019-02-24T20:51:14.934Z,10.74
2019-02-24T20:53:15.816Z,10.72
2019-02-24T20:57:19.350Z,10.71
2019-02-24T20:59:19.445Z,10.69
2019-02-24T21:03:14.921Z,10.68
2019-02-24T21:05:19.603Z,10.66
2019-02-24T21:09:14.918Z,10.64
2019-02-24T21:11:14.933Z,10.63
2019-02-24T21:15:14.970Z,10.61
2019-02-24T21:17:14.967Z,10.60
2019-02-24T21:21:14.982Z,10.56
2019-02-24T21:23:15.025Z,10.56
2019-02-24T21:27:15.033Z,10.53
2019-02-24T21:29:17.099Z,10.53
2019-02-24T21:33:15.055Z,10.49
2019-02-24T21:35:17.199Z,10.47
2019-02-24T21:39:15.053Z,10.45
2019-02-24T21:41:19.804Z,10.44
2019-02-24T21:45:15.039Z,10.40
2019-02-24T21:47:19.642Z,10.42
2019-02-24T21:53:15.090Z,10.37
2019-02-24T21:55:15.108Z,10.36
2019-02-24T21:59:15.094Z,10.35
2019-02-24T22:01:19.636Z,10.32
2019-02-24T22:05:15.116Z,10.30
2019-02-24T22:07:15.136Z,10.28
2019-02-24T22:11:15.131Z,10.24
2019-02-24T22:13:15.168Z,10.24
2019-02-24T22:17:19.839Z,10.23
2019-02-24T22:19:15.176Z,10.22
2019-02-24T22:23:19.851Z,10.19
2019-02-24T22:25:19.890Z,10.19
2019-02-24T22:29:15.199Z,10.15
2019-02-24T22:31:15.233Z,10.15
2019-02-24T22:35:15.201Z,10.11
2019-02-24T22:37:15.212Z,10.11
2019-02-24T22:41:15.235Z,10.08
2019-02-24T22:43:20.177Z,10.08
2019-02-24T22:47:15.216Z,10.05
2019-02-24T22:49:15.249Z,10.04
2019-02-24T22:53:15.229Z,10.04
2019-02-24T22:55:15.236Z,10.03
2019-02-24T22:59:15.245Z,10.00
2019-02-24T23:01:15.245Z,9.98
2019-02-24T23:05:15.250Z,9.97
2019-02-24T23:07:15.264Z,9.94
2019-02-24T23:11:15.270Z,9.93
2019-02-24T23:13:20.898Z,9.93
2019-02-24T23:17:15.257Z,9.91
2019-02-24T23:19:15.247Z,9.90
2019-02-24T23:23:15.280Z,9.88
2019-02-24T23:25:15.274Z,9.87
2019-02-24T23:29:15.279Z,9.84
2019-02-24T23:31:15.286Z,9.81
2019-02-24T23:35:15.255Z,9.80
2019-02-24T23:37:15.291Z,9.79
2019-02-24T23:41:20.469Z,9.76
2019-02-24T23:43:15.293Z,9.75
2019-02-24T23:47:15.329Z,9.75
2019-02-24T23:49:15.326Z,9.73
2019-02-24T23:53:20.301Z,9.70
2019-02-24T23:55:19.209Z,9.70
2019-02-24T23:59:15.354Z,9.66
